Time;durP1;ratioP1;P1;durP2;ratioP2;P2;SDS_P1;SDS_P2;PMS_P1;PMS_P2;Temp;Humidity;BMP_temperature;BMP_pressure;BME280_temperature;BME280_humidity;BME280_pressure;Samples;Min_cycle;Max_cycle;Signal;HPM_P1;HPM_P2
2022/04/29 00:01:56;;;;;;;15.60;9.07;;;9.90;99.90;;;;;;5090614;28;20202;-51
2022/04/29 00:04:25;;;;;;;15.33;9.77;;;9.90;99.90;;;;;;5090645;28;20731;-52
2022/04/29 00:06:54;;;;;;;16.90;9.50;;;9.80;99.90;;;;;;5091192;28;20224;-52
2022/04/29 00:09:23;;;;;;;12.03;9.43;;;9.80;99.90;;;;;;5091560;28;20252;-52
2022/04/29 00:11:52;;;;;;;15.93;8.63;;;9.80;99.90;;;;;;5070629;28;20205;-51
2022/04/29 00:14:21;;;;;;;13.93;9.30;;;9.80;99.90;;;;;;5071126;28;20262;-51
2022/04/29 00:16:49;;;;;;;13.10;9.50;;;9.70;99.90;;;;;;5070812;28;20258;-51
2022/04/29 00:19:17;;;;;;;13.17;8.63;;;9.70;99.90;;;;;;5070893;28;20218;-51
2022/04/29 00:21:45;;;;;;;18.60;9.67;;;9.60;99.90;;;;;;5070218;28;20205;-52
2022/04/29 00:24:14;;;;;;;13.00;8.80;;;9.60;99.90;;;;;;5091098;28;20261;-52
2022/04/29 00:26:43;;;;;;;12.50;8.27;;;9.60;99.90;;;;;;5091077;28;20224;-51
2022/04/29 00:29:13;;;;;;;12.63;9.43;;;9.50;99.90;;;;;;5090823;28;20208;-51
2022/04/29 00:31:41;;;;;;;13.20;9.13;;;9.40;99.90;;;;;;5089656;28;20219;-51
2022/04/29 00:34:09;;;;;;;17.87;8.83;;;9.30;99.90;;;;;;5074307;28;20670;-51
2022/04/29 00:36:37;;;;;;;16.40;9.43;;;9.30;99.90;;;;;;5071288;28;20228;-51
2022/04/29 00:39:05;;;;;;;14.40;9.30;;;9.30;99.90;;;;;;5071050;28;20205;-51
2022/04/29 00:41:38;;;;;;;13.43;9.53;;;9.20;99.90;;;;;;5075311;28;20295;-52
2022/04/29 00:44:09;;;;;;;15.20;9.23;;;9.10;99.90;;;;;;5074086;28;20723;-51
2022/04/29 00:46:39;;;;;;;14.13;9.77;;;9.00;99.90;;;;;;5092495;28;20445;-51
2022/04/29 00:49:10;;;;;;;12.00;8.60;;;9.00;99.90;;;;;;5094931;28;20777;-51
2022/04/29 00:51:39;;;;;;;13.93;8.23;;;9.00;99.90;;;;;;5095171;28;20194;-51
2022/04/29 00:54:10;;;;;;;14.27;8.73;;;9.00;99.90;;;;;;5094865;28;20209;-52
2022/04/29 00:56:42;;;;;;;12.03;9.17;;;9.00;99.90;;;;;;5094422;28;20277;-51
2022/04/29 00:59:16;;;;;;;12.03;8.37;;;9.00;99.90;;;;;;5095000;28;20204;-50
2022/04/29 01:01:46;;;;;;;13.17;8.57;;;9.00;99.90;;;;;;5094127;28;20277;-51
2022/04/29 01:04:19;;;;;;;13.97;9.30;;;8.90;99.90;;;;;;5094850;28;20215;-51
2022/04/29 01:06:48;;;;;;;14.27;8.83;;;8.90;99.90;;;;;;5094604;28;20294;-51
2022/04/29 01:09:16;;;;;;;15.63;9.10;;;8.80;99.90;;;;;;5094688;28;20270;-51
2022/04/29 01:11:44;;;;;;;12.17;8.50;;;8.80;99.90;;;;;;5094094;28;20706;-52
2022/04/29 01:14:13;;;;;;;13.83;9.73;;;8.80;99.90;;;;;;5094348;28;20210;-51
2022/04/29 01:16:43;;;;;;;18.33;10.30;;;8.80;99.90;;;;;;5094677;28;20282;-50
2022/04/29 01:19:11;;;;;;;12.23;8.87;;;8.80;99.90;;;;;;5094538;28;20208;-51
2022/04/29 01:21:39;;;;;;;15.37;9.43;;;8.80;99.90;;;;;;5094335;28;20200;-51
2022/04/29 01:24:10;;;;;;;12.57;8.90;;;8.90;99.90;;;;;;5094147;28;20208;-51
2022/04/29 01:26:38;;;;;;;16.70;9.93;;;8.90;99.90;;;;;;5094725;28;20239;-51
2022/04/29 01:29:08;;;;;;;18.83;9.83;;;8.90;99.90;;;;;;5093955;28;20207;-51
2022/04/29 01:31:37;;;;;;;17.23;9.10;;;8.80;99.90;;;;;;5093815;28;20213;-51
2022/04/29 01:34:06;;;;;;;16.47;9.50;;;8.80;99.90;;;;;;5092220;28;20640;-51
2022/04/29 01:36:34;;;;;;;15.90;9.47;;;8.80;99.90;;;;;;5092840;28;20577;-51
2022/04/29 01:39:02;;;;;;;19.57;10.50;;;8.80;99.90;;;;;;5093009;28;20208;-51
2022/04/29 01:41:32;;;;;;;17.70;9.70;;;8.70;99.90;;;;;;5092215;28;20257;-52
2022/04/29 01:44:01;;;;;;;12.00;8.90;;;8.70;99.90;;;;;;5091358;28;20204;-51
2022/04/29 01:46:29;;;;;;;16.00;9.43;;;8.60;99.90;;;;;;5091976;28;20231;-51
2022/04/29 01:48:57;;;;;;;11.90;9.70;;;8.70;99.90;;;;;;5092017;28;20730;-51
2022/04/29 01:51:25;;;;;;;15.80;9.43;;;8.60;99.90;;;;;;5092189;28;20250;-51
2022/04/29 01:53:54;;;;;;;14.77;10.30;;;8.70;99.90;;;;;;5092223;28;20257;-51
2022/04/29 01:56:32;;;;;;;11.73;9.13;;;8.70;99.90;;;;;;5092429;28;20234;-51
2022/04/29 01:59:03;;;;;;;12.73;9.60;;;8.70;99.90;;;;;;5092422;28;20200;-51
2022/04/29 02:01:31;;;;;;;15.33;9.03;;;8.60;99.90;;;;;;5092535;28;20534;-51
2022/04/29 02:04:00;;;;;;;15.53;8.77;;;8.60;99.90;;;;;;5092498;28;20205;-52
2022/04/29 02:06:28;;;;;;;14.07;9.03;;;8.60;99.90;;;;;;5092931;28;20234;-50
2022/04/29 02:08:57;;;;;;;16.10;9.80;;;8.60;99.90;;;;;;5092927;28;20188;-51
2022/04/29 02:11:25;;;;;;;12.03;8.67;;;8.50;99.90;;;;;;5092560;28;20204;-52
2022/04/29 02:13:54;;;;;;;12.80;9.17;;;8.50;99.90;;;;;;5092552;28;20214;-51
2022/04/29 02:16:23;;;;;;;15.90;9.83;;;8.40;99.90;;;;;;5092992;28;20220;-52
2022/04/29 02:18:51;;;;;;;15.10;9.03;;;8.30;99.90;;;;;;5092658;28;20697;-51
2022/04/29 02:21:20;;;;;;;13.70;9.00;;;8.30;99.90;;;;;;5092673;28;20205;-51
2022/04/29 02:23:48;;;;;;;15.17;9.60;;;8.30;99.90;;;;;;5091667;28;20261;-50
2022/04/29 02:26:16;;;;;;;14.50;9.13;;;8.30;99.90;;;;;;5092269;28;20228;-51
2022/04/29 02:28:44;;;;;;;14.43;9.47;;;8.20;99.90;;;;;;5092411;28;20252;-51
2022/04/29 02:31:12;;;;;;;14.43;8.70;;;8.20;99.90;;;;;;5046287;28;1283651;-51
2022/04/29 02:33:42;;;;;;;16.07;9.53;;;8.20;99.90;;;;;;5092498;28;20672;-50
2022/04/29 02:36:10;;;;;;;15.13;9.30;;;8.20;99.90;;;;;;5093146;28;20224;-51
2022/04/29 02:38:38;;;;;;;13.97;8.40;;;8.10;99.90;;;;;;5093059;28;20200;-50
2022/04/29 02:41:07;;;;;;;13.83;9.57;;;8.10;99.90;;;;;;5092681;28;20219;-51
2022/04/29 02:43:35;;;;;;;12.37;9.83;;;8.10;99.90;;;;;;5092693;28;20204;-51
2022/04/29 02:46:03;;;;;;;15.40;9.97;;;8.00;99.90;;;;;;5092645;28;20576;-51
2022/04/29 02:48:31;;;;;;;14.77;10.63;;;8.00;99.90;;;;;;5093054;28;20287;-51
2022/04/29 02:51:01;;;;;;;17.30;9.97;;;8.00;99.90;;;;;;5092830;28;20269;-51
2022/04/29 02:53:29;;;;;;;13.90;9.97;;;8.00;99.90;;;;;;5092266;28;20258;-51
2022/04/29 02:55:58;;;;;;;15.27;10.20;;;7.90;99.90;;;;;;5092853;28;20223;-51
2022/04/29 02:58:26;;;;;;;17.27;11.07;;;7.90;99.90;;;;;;5092823;28;20212;-51
2022/04/29 03:00:56;;;;;;;12.97;8.80;;;7.90;99.90;;;;;;5092422;28;20208;-51
2022/04/29 03:03:24;;;;;;;13.80;9.47;;;7.90;99.90;;;;;;5091395;28;20208;-51
2022/04/29 03:05:52;;;;;;;16.17;10.83;;;7.90;99.90;;;;;;5092456;28;20330;-51
2022/04/29 03:08:22;;;;;;;17.13;11.70;;;7.90;99.90;;;;;;5092167;28;20204;-51
2022/04/29 03:10:50;;;;;;;13.10;10.80;;;7.80;99.90;;;;;;5092629;28;20212;-51
2022/04/29 03:13:18;;;;;;;15.27;10.80;;;7.80;99.90;;;;;;5091531;28;20208;-51
2022/04/29 03:15:46;;;;;;;15.57;10.13;;;7.80;99.90;;;;;;5092105;28;20277;-50
2022/04/29 03:18:22;;;;;;;15.67;10.53;;;7.70;99.90;;;;;;5092536;28;20200;-51
2022/04/29 03:20:53;;;;;;;14.23;10.13;;;7.70;99.90;;;;;;5092350;28;20211;-51
2022/04/29 03:23:23;;;;;;;12.33;8.77;;;7.70;99.90;;;;;;5091982;28;20208;-51
2022/04/29 03:25:51;;;;;;;13.30;8.70;;;7.60;99.90;;;;;;5092010;28;20238;-50
2022/04/29 03:28:19;;;;;;;12.00;8.40;;;7.60;99.90;;;;;;5092130;28;20203;-51
2022/04/29 03:30:47;;;;;;;13.60;8.33;;;7.60;99.90;;;;;;5091246;28;20216;-52
2022/04/29 03:33:15;;;;;;;14.40;9.13;;;7.60;99.90;;;;;;5091468;28;20251;-51
2022/04/29 03:35:46;;;;;;;13.90;8.43;;;7.60;99.90;;;;;;5091264;28;20646;-51
2022/04/29 03:38:17;;;;;;;11.07;8.67;;;7.50;99.90;;;;;;5092412;28;20195;-51
2022/04/29 03:40:47;;;;;;;13.17;8.93;;;7.50;99.90;;;;;;5091812;28;20208;-50
2022/04/29 03:43:15;;;;;;;14.07;8.37;;;7.50;99.90;;;;;;5091369;28;20212;-51
2022/04/29 03:45:43;;;;;;;10.73;8.73;;;7.40;99.90;;;;;;5091330;28;20772;-51
2022/04/29 03:48:12;;;;;;;12.40;8.50;;;7.40;99.90;;;;;;5091716;28;20246;-51
2022/04/29 03:50:41;;;;;;;10.27;8.40;;;7.30;99.90;;;;;;5091724;28;20208;-51
2022/04/29 03:53:09;;;;;;;11.80;8.67;;;7.30;99.90;;;;;;5091125;28;20215;-51
2022/04/29 03:55:37;;;;;;;12.87;8.70;;;7.30;99.90;;;;;;5091406;28;20274;-51
2022/04/29 03:58:07;;;;;;;14.60;8.90;;;7.30;99.90;;;;;;5091745;28;20223;-50
2022/04/29 04:00:35;;;;;;;15.43;9.53;;;7.30;99.90;;;;;;5091562;28;20225;-51
2022/04/29 04:03:05;;;;;;;12.80;9.40;;;7.20;99.90;;;;;;5090799;28;20244;-51
2022/04/29 04:05:35;;;;;;;14.30;9.57;;;7.20;99.90;;;;;;5091731;28;20245;-50
2022/04/29 04:08:03;;;;;;;14.47;9.70;;;7.20;99.90;;;;;;5091199;28;20637;-51
2022/04/29 04:10:31;;;;;;;13.30;10.00;;;7.20;99.90;;;;;;5091557;28;20282;-50
2022/04/29 04:13:00;;;;;;;12.13;9.00;;;7.20;99.90;;;;;;5090797;28;20206;-51
2022/04/29 04:15:29;;;;;;;14.30;10.03;;;7.20;99.90;;;;;;5090970;28;20234;-49
2022/04/29 04:17:57;;;;;;;11.93;9.07;;;7.20;99.90;;;;;;5091814;28;20255;-50
2022/04/29 04:20:25;;;;;;;13.73;9.73;;;7.20;99.90;;;;;;5091466;28;20267;-51
2022/04/29 04:22:53;;;;;;;13.07;9.17;;;7.20;99.90;;;;;;5090704;28;20208;-51
2022/04/29 04:25:21;;;;;;;11.33;8.90;;;7.20;99.90;;;;;;5091208;28;20795;-51
2022/04/29 04:27:50;;;;;;;15.70;9.03;;;7.20;99.90;;;;;;5090971;28;20725;-51
2022/04/29 04:30:18;;;;;;;17.27;12.40;;;7.30;99.90;;;;;;5091492;28;20208;-51
2022/04/29 04:32:47;;;;;;;13.30;8.90;;;7.30;99.90;;;;;;5090438;28;20733;-52
2022/04/29 04:35:15;;;;;;;14.60;10.07;;;7.40;99.90;;;;;;5091244;28;20285;-51
2022/04/29 04:37:44;;;;;;;13.10;9.63;;;7.40;99.90;;;;;;5090622;28;20253;-51
2022/04/29 04:40:13;;;;;;;15.87;9.83;;;7.50;99.90;;;;;;5091102;28;20205;-51
2022/04/29 04:42:45;;;;;;;16.27;10.27;;;7.50;99.90;;;;;;5090452;28;20207;-51
2022/04/29 04:45:13;;;;;;;15.80;10.20;;;7.60;99.90;;;;;;5091076;28;20223;-51
2022/04/29 04:47:41;;;;;;;15.63;10.13;;;7.70;99.90;;;;;;5090429;28;20270;-51
2022/04/29 04:50:13;;;;;;;15.73;10.27;;;7.80;99.90;;;;;;5091221;28;20204;-51
2022/04/29 04:52:44;;;;;;;15.23;9.77;;;7.90;99.90;;;;;;5089869;28;20623;-52
2022/04/29 04:55:13;;;;;;;15.53;10.60;;;8.00;99.90;;;;;;5090761;28;20224;-52
2022/04/29 04:57:41;;;;;;;14.90;10.87;;;8.20;99.90;;;;;;5090916;28;20215;-51
2022/04/29 05:00:10;;;;;;;12.63;10.03;;;8.30;99.90;;;;;;5090909;28;20265;-51
2022/04/29 05:02:40;;;;;;;15.90;10.87;;;8.40;99.90;;;;;;5090407;28;20276;-51
2022/04/29 05:05:09;;;;;;;17.07;11.57;;;8.50;99.90;;;;;;5090424;28;20228;-51
2022/04/29 05:07:40;;;;;;;13.40;10.80;;;8.70;99.90;;;;;;5090610;28;20231;-52
2022/04/29 05:10:10;;;;;;;15.83;10.03;;;8.80;99.90;;;;;;5090607;28;20196;-51
2022/04/29 05:12:42;;;;;;;16.50;10.27;;;8.90;99.90;;;;;;5090151;28;20738;-52
2022/04/29 05:15:11;;;;;;;15.97;10.87;;;9.00;99.90;;;;;;5090348;28;20258;-51
2022/04/29 05:17:40;;;;;;;14.87;9.63;;;9.10;99.90;;;;;;5090522;28;20579;-51
2022/04/29 05:20:09;;;;;;;15.03;10.00;;;9.20;99.90;;;;;;5090552;28;20219;-52
2022/04/29 05:22:39;;;;;;;15.60;10.90;;;9.40;99.90;;;;;;5090084;28;20200;-51
2022/04/29 05:25:08;;;;;;;18.87;10.50;;;9.80;99.90;;;;;;5090856;28;20227;-51
2022/04/29 05:27:36;;;;;;;14.53;9.77;;;10.00;99.90;;;;;;5093981;28;20277;-51
2022/04/29 05:30:05;;;;;;;13.97;10.20;;;10.20;99.90;;;;;;5093081;28;20257;-51
2022/04/29 05:32:36;;;;;;;14.00;9.97;;;10.30;99.90;;;;;;5093414;28;20857;-51
2022/04/29 05:35:06;;;;;;;12.10;10.00;;;10.50;99.90;;;;;;5094185;28;20285;-52
2022/04/29 05:37:34;;;;;;;17.53;10.20;;;10.60;99.90;;;;;;5093834;28;20200;-52
2022/04/29 05:42:50;;;;;;;14.30;10.70;;;10.40;99.90;;;;;;5093311;28;20200;-52
2022/04/29 05:45:18;;;;;;;14.93;10.17;;;10.30;99.90;;;;;;5093739;28;20788;-51
2022/04/29 05:47:46;;;;;;;13.40;10.27;;;10.20;99.90;;;;;;5093649;28;20246;-52
2022/04/29 05:50:14;;;;;;;14.73;10.57;;;10.10;99.90;;;;;;5094114;28;20278;-52
2022/04/29 05:52:42;;;;;;;15.40;10.73;;;10.20;99.90;;;;;;5093471;28;20527;-52
2022/04/29 05:55:13;;;;;;;16.03;10.07;;;10.10;99.90;;;;;;5093685;28;20274;-51
2022/04/29 05:58:01;;;;;;;16.17;10.33;;;10.10;99.90;;;;;;5093769;28;20204;-52
2022/04/29 06:00:29;;;;;;;14.03;9.93;;;10.20;99.90;;;;;;5084071;28;20251;-52
2022/04/29 06:02:57;;;;;;;12.33;9.47;;;10.30;99.90;;;;;;5084265;28;20212;-51
2022/04/29 06:05:26;;;;;;;12.67;10.03;;;10.40;99.90;;;;;;5084139;28;20639;-50
2022/04/29 06:07:54;;;;;;;14.13;10.60;;;10.60;99.90;;;;;;5087811;28;20216;-52
2022/04/29 06:10:23;;;;;;;14.00;10.07;;;11.00;99.90;;;;;;5093545;28;20208;-52
2022/04/29 06:12:51;;;;;;;14.33;10.87;;;11.20;99.90;;;;;;5093052;28;20261;-50
2022/04/29 06:15:20;;;;;;;13.43;10.70;;;11.50;99.90;;;;;;5093227;28;20273;-51
2022/04/29 06:17:48;;;;;;;13.87;10.10;;;11.60;99.90;;;;;;5093179;28;20196;-51
2022/04/29 06:20:16;;;;;;;17.53;11.90;;;11.60;99.90;;;;;;5091245;28;20204;-51
2022/04/29 06:22:45;;;;;;;17.50;11.87;;;11.40;99.90;;;;;;5092300;28;20208;-51
2022/04/29 06:25:13;;;;;;;14.33;11.33;;;11.40;99.90;;;;;;5093202;28;20232;-51
2022/04/29 06:27:46;;;;;;;15.13;11.33;;;11.50;99.90;;;;;;5092480;28;20681;-52
2022/04/29 06:30:15;;;;;;;18.33;12.23;;;11.40;99.90;;;;;;5093064;28;20204;-52
2022/04/29 06:33:03;;;;;;;16.07;11.40;;;11.40;99.90;;;;;;5092204;28;20256;-51
2022/04/29 06:35:31;;;;;;;18.23;12.30;;;11.40;99.90;;;;;;5093061;28;20281;-52
2022/04/29 06:38:00;;;;;;;15.13;11.70;;;11.60;99.90;;;;;;5091231;28;20936;-52
2022/04/29 06:40:28;;;;;;;15.97;11.87;;;11.90;99.90;;;;;;5092489;28;20253;-51
2022/04/29 06:42:57;;;;;;;16.03;11.73;;;12.40;99.90;;;;;;5092371;28;20742;-51
2022/04/29 06:45:25;;;;;;;15.57;11.73;;;12.70;99.90;;;;;;5091806;28;20228;-52
2022/04/29 06:47:54;;;;;;;15.30;11.83;;;13.00;99.90;;;;;;5076177;28;20286;-51
2022/04/29 06:50:22;;;;;;;17.77;11.80;;;13.00;99.90;;;;;;5091051;28;20253;-52
2022/04/29 06:52:51;;;;;;;18.90;12.90;;;13.30;99.90;;;;;;5092025;28;20798;-52
2022/04/29 06:55:19;;;;;;;15.30;12.03;;;13.20;99.90;;;;;;5091940;28;20225;-52
2022/04/29 06:57:47;;;;;;;17.10;12.63;;;13.10;99.90;;;;;;5092710;28;20242;-52
2022/04/29 07:00:18;;;;;;;15.13;12.20;;;13.40;99.90;;;;;;5092376;28;20246;-52
2022/04/29 07:02:47;;;;;;;13.83;11.30;;;13.70;99.90;;;;;;5091745;28;20628;-52
2022/04/29 07:05:15;;;;;;;17.67;11.37;;;14.10;99.90;;;;;;5092381;28;20224;-52
2022/04/29 07:07:44;;;;;;;16.90;11.98;;;14.00;99.90;;;;;;5072431;28;20262;-52
2022/04/29 07:10:12;;;;;;;16.42;11.75;;;14.00;99.90;;;;;;5088085;28;20215;-52
2022/04/29 07:12:42;;;;;;;19.95;12.98;;;14.20;99.90;;;;;;5091871;28;20257;-50
2022/04/29 07:15:11;;;;;;;19.42;12.77;;;14.20;99.90;;;;;;5092344;28;20277;-51
2022/04/29 07:17:40;;;;;;;14.57;12.13;;;14.30;99.90;;;;;;5091756;28;20208;-51
2022/04/29 07:20:10;;;;;;;15.05;11.65;;;14.20;99.90;;;;;;5092501;28;20624;-51
2022/04/29 07:22:39;;;;;;;15.50;11.93;;;14.30;99.90;;;;;;5092013;28;20271;-51
2022/04/29 07:25:10;;;;;;;15.80;12.07;;;14.70;99.90;;;;;;5091962;28;20228;-51
2022/04/29 07:27:39;;;;;;;16.20;11.55;;;14.90;99.90;;;;;;5092027;28;20265;-52
2022/04/29 07:30:11;;;;;;;15.70;12.23;;;15.20;99.90;;;;;;5091901;28;20212;-52
2022/04/29 07:32:41;;;;;;;13.88;11.30;;;15.40;99.90;;;;;;5091126;28;20645;-52
2022/04/29 07:43:26;;;;;;;16.20;11.48;;;15.60;99.90;;;;;;5091383;28;20209;-52
2022/04/29 07:45:54;;;;;;;15.65;12.32;;;15.40;99.90;;;;;;5091045;28;20576;-51
2022/04/29 07:48:24;;;;;;;16.13;11.90;;;15.40;99.90;;;;;;5091246;28;20232;-52
2022/04/29 07:50:52;;;;;;;18.33;11.65;;;15.30;99.90;;;;;;5090997;28;20612;-52
2022/04/29 07:53:21;;;;;;;15.93;11.75;;;15.20;99.90;;;;;;5090697;28;20230;-52
2022/04/29 07:55:49;;;;;;;15.82;11.10;;;15.30;99.90;;;;;;5091160;28;20739;-52
2022/04/29 07:58:17;;;;;;;17.08;11.85;;;15.40;99.90;;;;;;5091220;28;20204;-52
2022/04/29 08:00:45;;;;;;;17.83;11.88;;;15.50;99.90;;;;;;5091269;28;20261;-51
2022/04/29 08:03:35;;;;;;;20.13;11.77;;;15.80;99.90;;;;;;5090046;28;20236;-52
2022/04/29 08:06:05;;;;;;;17.80;11.65;;;15.90;99.90;;;;;;5091749;28;20223;-52
2022/04/29 08:08:33;;;;;;;16.55;11.48;;;15.90;99.90;;;;;;5089326;28;20220;-52
2022/04/29 08:11:01;;;;;;;17.42;11.32;;;16.00;99.90;;;;;;5091653;28;20238;-52
2022/04/29 08:13:30;;;;;;;17.33;12.25;;;16.50;99.90;;;;;;5090921;28;20257;-52
2022/04/29 08:16:17;;;;;;;20.55;12.00;;;17.00;99.90;;;;;;5091327;28;20339;-52
2022/04/29 08:18:47;;;;;;;14.88;11.07;;;17.30;99.90;;;;;;5091028;28;20207;-53
2022/04/29 08:21:15;;;;;;;17.67;12.05;;;17.50;99.90;;;;;;5091418;28;20245;-53
2022/04/29 08:23:43;;;;;;;17.33;11.98;;;17.50;99.90;;;;;;5090991;28;20204;-52
2022/04/29 08:26:11;;;;;;;16.15;11.95;;;17.40;99.90;;;;;;5091076;28;20223;-52
2022/04/29 08:28:41;;;;;;;18.20;12.48;;;17.20;99.90;;;;;;5090770;28;20227;-51
2022/04/29 08:31:09;;;;;;;15.40;11.65;;;17.10;99.90;;;;;;5090709;28;20230;-52
2022/04/29 08:33:37;;;;;;;13.52;11.68;;;17.10;99.90;;;;;;5090308;28;20212;-52
2022/04/29 08:36:07;;;;;;;19.50;12.73;;;17.00;99.90;;;;;;5090792;28;20236;-52
2022/04/29 08:38:35;;;;;;;14.65;10.88;;;16.90;99.90;;;;;;5091067;28;20227;-52
2022/04/29 08:41:06;;;;;;;21.67;12.30;;;16.90;99.90;;;;;;5090654;28;20207;-52
2022/04/29 08:43:34;;;;;;;13.50;11.23;;;16.90;99.90;;;;;;5090897;28;20253;-52
2022/04/29 08:46:02;;;;;;;19.35;11.90;;;16.90;99.90;;;;;;5090814;28;20224;-51
2022/04/29 08:48:31;;;;;;;18.17;12.02;;;16.90;99.90;;;;;;5090468;28;20200;-52
2022/04/29 08:51:00;;;;;;;22.42;12.38;;;17.00;99.90;;;;;;5090918;28;20249;-52
2022/04/29 08:53:29;;;;;;;20.48;12.30;;;17.10;99.90;;;;;;5104375;28;20203;-52
2022/04/29 08:58:43;;;;;;;16.92;12.93;;;17.10;99.90;;;;;;5110965;28;20637;-52
2022/04/29 09:01:16;;;;;;;16.98;12.63;;;17.10;99.90;;;;;;5113679;28;20737;-51
2022/04/29 09:03:45;;;;;;;18.48;13.32;;;17.10;99.90;;;;;;5114204;28;20717;-52
2022/04/29 09:06:17;;;;;;;19.95;13.48;;;17.10;99.90;;;;;;5096563;28;20733;-52
2022/04/29 09:08:50;;;;;;;17.15;13.63;;;17.10;99.90;;;;;;5094215;28;20634;-51
2022/04/29 09:11:26;;;;;;;16.77;11.98;;;16.90;99.90;;;;;;5078081;28;20201;-52
2022/04/29 09:13:55;;;;;;;19.67;13.65;;;16.80;99.90;;;;;;5075898;28;20199;-52
2022/04/29 09:16:23;;;;;;;18.60;13.40;;;16.60;99.90;;;;;;5084111;28;20224;-52
2022/04/29 09:18:53;;;;;;;21.85;14.50;;;16.60;99.90;;;;;;5094360;28;20211;-52
2022/04/29 09:21:25;;;;;;;18.58;13.68;;;16.60;99.90;;;;;;5094163;28;20234;-52
2022/04/29 09:23:56;;;;;;;18.98;13.55;;;16.80;99.90;;;;;;5093773;28;20200;-51
2022/04/29 09:26:27;;;;;;;16.73;13.32;;;17.00;99.90;;;;;;5094039;28;20238;-51
2022/04/29 09:28:56;;;;;;;16.60;13.63;;;17.10;99.90;;;;;;5093972;28;20206;-52
2022/04/29 09:31:24;;;;;;;16.25;13.10;;;17.30;99.90;;;;;;5077268;28;20266;-52
2022/04/29 09:34:13;;;;;;;20.95;14.55;;;17.40;99.90;;;;;;5073850;28;20748;-52
2022/04/29 09:36:41;;;;;;;19.60;13.55;;;17.60;99.90;;;;;;5073373;28;20232;-52
2022/04/29 09:39:27;;;;;;;19.80;13.60;;;17.60;99.90;;;;;;5074013;28;20204;-52
2022/04/29 09:41:57;;;;;;;19.80;13.73;;;17.70;99.90;;;;;;5073047;28;20243;-52
2022/04/29 09:44:29;;;;;;;17.88;13.73;;;17.60;99.90;;;;;;5073769;28;20259;-52
2022/04/29 09:47:09;;;;;;;18.88;13.27;;;17.90;99.90;;;;;;5087327;28;20227;-52
2022/04/29 09:49:37;;;;;;;17.17;13.57;;;17.90;99.90;;;;;;5085593;28;20765;-52
2022/04/29 09:52:07;;;;;;;18.17;13.75;;;18.20;99.90;;;;;;5093852;28;20204;-52
2022/04/29 09:54:37;;;;;;;19.40;12.93;;;18.50;99.90;;;;;;5093834;28;20207;-52
2022/04/29 09:57:11;;;;;;;16.98;13.38;;;18.60;99.90;;;;;;5093623;28;20256;-52
2022/04/29 09:59:41;;;;;;;16.02;12.95;;;18.40;99.90;;;;;;5092814;28;20273;-51
2022/04/29 10:02:10;;;;;;;20.40;13.60;;;18.40;99.90;;;;;;5093315;28;20204;-52
2022/04/29 10:04:40;;;;;;;19.25;14.23;;;18.60;99.90;;;;;;5093583;28;20287;-51
2022/04/29 10:07:12;;;;;;;14.75;12.15;;;18.80;99.90;;;;;;5096707;28;20208;-51
2022/04/29 10:09:45;;;;;;;14.30;11.70;;;18.80;99.90;;;;;;5102230;28;20212;-52
2022/04/29 10:12:15;;;;;;;18.15;11.85;;;18.80;99.90;;;;;;5079871;28;20713;-51
2022/04/29 10:14:45;;;;;;;17.70;12.48;;;18.90;99.90;;;;;;5093533;28;20200;-52
2022/04/29 10:22:51;;;;;;;15.02;11.85;;;18.80;99.90;;;;;;5091573;28;20208;-52
2022/04/29 10:25:23;;;;;;;14.00;11.80;;;19.10;99.90;;;;;;5093194;28;20228;-55
2022/04/29 10:27:52;;;;;;;14.73;11.65;;;19.20;99.90;;;;;;5093179;28;20261;-52
2022/04/29 10:30:27;;;;;;;14.00;11.45;;;19.20;99.90;;;;;;5093110;28;20277;-51
2022/04/29 10:33:07;;;;;;;14.52;11.20;;;19.20;99.90;;;;;;5092018;28;20215;-52
2022/04/29 10:35:50;;;;;;;16.35;11.05;;;19.20;99.90;;;;;;5079905;28;20229;-52
2022/04/29 10:38:19;;;;;;;12.75;11.25;;;19.30;99.90;;;;;;5090310;28;20208;-52
2022/04/29 10:41:09;;;;;;;14.25;11.48;;;19.20;99.90;;;;;;5092664;28;20204;-51
2022/04/29 10:43:38;;;;;;;15.30;11.73;;;19.20;99.90;;;;;;5092011;28;20211;-51
2022/04/29 10:46:20;;;;;;;12.30;10.15;;;19.10;99.90;;;;;;5092605;28;20250;-52
2022/04/29 10:48:49;;;;;;;13.57;10.25;;;19.10;99.90;;;;;;5072430;28;20208;-51
2022/04/29 10:51:18;;;;;;;11.77;10.00;;;19.20;99.90;;;;;;5091945;28;20239;-52
2022/04/29 10:53:48;;;;;;;13.18;11.05;;;19.10;99.90;;;;;;5108273;28;20211;-51
2022/04/29 10:56:37;;;;;;;11.63;10.10;;;19.10;99.90;;;;;;5113000;28;20223;-51
2022/04/29 10:59:21;;;;;;;15.95;10.32;;;19.20;99.90;;;;;;5112806;28;20672;-52
2022/04/29 11:01:52;;;;;;;11.32;9.27;;;19.20;99.90;;;;;;5105478;28;20226;-52
2022/04/29 11:04:47;;;;;;;13.70;10.55;;;19.10;99.90;;;;;;5092134;28;20273;-52
2022/04/29 11:07:48;;;;;;;11.93;9.88;;;19.10;99.90;;;;;;5087927;28;20211;-52
2022/04/29 11:10:19;;;;;;;13.60;9.43;;;19.00;99.90;;;;;;5092241;28;20914;-52
2022/04/29 11:13:02;;;;;;;14.48;9.70;;;19.10;99.90;;;;;;5091862;28;20212;-52
2022/04/29 11:15:44;;;;;;;11.73;9.73;;;19.10;99.90;;;;;;5092336;28;20273;-52
2022/04/29 11:18:19;;;;;;;11.05;9.77;;;19.20;99.90;;;;;;5091818;28;20209;-51
2022/04/29 11:20:49;;;;;;;11.77;9.18;;;19.10;99.90;;;;;;5092171;28;20216;-52
2022/04/29 11:26:12;;;;;;;11.95;9.25;;;19.40;99.90;;;;;;5092396;28;20231;-51
2022/04/29 11:28:42;;;;;;;14.13;10.07;;;19.60;99.90;;;;;;5091792;28;20207;-52
2022/04/29 11:31:11;;;;;;;11.93;10.02;;;19.60;99.90;;;;;;5091658;28;20701;-51
2022/04/29 11:33:40;;;;;;;11.50;9.35;;;19.60;99.90;;;;;;5091161;28;20679;-53
2022/04/29 11:36:10;;;;;;;14.05;10.63;;;19.70;99.90;;;;;;5091807;28;20252;-52
2022/04/29 11:38:43;;;;;;;19.27;10.13;;;19.70;99.90;;;;;;5091631;28;20204;-52
2022/04/29 11:41:18;;;;;;;11.40;9.50;;;19.80;99.90;;;;;;5092302;28;20208;-52
2022/04/29 11:43:48;;;;;;;15.65;10.52;;;19.90;99.90;;;;;;5090787;28;20199;-52
2022/04/29 11:46:17;;;;;;;13.25;10.18;;;19.90;99.90;;;;;;5091992;28;20220;-52
2022/04/29 11:48:52;;;;;;;12.82;9.55;;;20.00;99.90;;;;;;5090208;28;20204;-53
2022/04/29 11:51:21;;;;;;;12.40;9.45;;;19.90;99.90;;;;;;5070865;28;20600;-52
2022/04/29 11:53:58;;;;;;;13.68;9.85;;;19.90;99.90;;;;;;5091092;28;20184;-52
2022/04/29 11:56:35;;;;;;;14.30;10.10;;;20.00;99.90;;;;;;5090600;28;20228;-51
2022/04/29 11:59:08;;;;;;;10.43;8.98;;;20.00;99.00;;;;;;5091704;28;20188;-52
2022/04/29 12:01:37;;;;;;;10.88;8.98;;;19.80;98.90;;;;;;5091368;28;20620;-52
2022/04/29 12:04:06;;;;;;;10.20;8.85;;;19.70;99.90;;;;;;5091268;28;20303;-52
2022/04/29 12:06:35;;;;;;;12.27;10.13;;;19.80;99.90;;;;;;5090684;28;20228;-51
2022/04/29 12:09:03;;;;;;;11.63;9.52;;;19.90;99.90;;;;;;5084861;28;20266;-51
2022/04/29 12:11:32;;;;;;;10.10;9.02;;;19.90;99.90;;;;;;5071152;28;20221;-51
2022/04/29 12:16:53;;;;;;;13.50;8.90;;;19.90;99.90;;;;;;5128992;27;20558;-51
2022/04/29 12:19:22;;;;;;;11.63;9.13;;;19.90;99.50;;;;;;5128821;27;20222;-51
2022/04/29 12:21:55;;;;;;;12.05;9.15;;;19.90;99.00;;;;;;5127909;27;20203;-51
2022/04/29 12:24:23;;;;;;;12.48;9.82;;;20.00;98.00;;;;;;5088071;28;20200;-51
2022/04/29 12:27:05;;;;;;;12.00;9.88;;;20.00;98.30;;;;;;5088058;28;20697;-51
2022/04/29 12:29:34;;;;;;;12.48;10.20;;;20.10;98.20;;;;;;5089000;28;20258;-51
2022/04/29 12:35:08;;;;;;;11.85;9.52;;;20.10;97.90;;;;;;5108254;28;20212;-51
2022/04/29 12:37:37;;;;;;;10.65;8.80;;;20.20;98.50;;;;;;5108256;28;20204;-51
2022/04/29 12:40:29;;;;;;;11.65;9.20;;;20.30;98.90;;;;;;5108397;28;20235;-50
2022/04/29 12:43:18;;;;;;;13.05;10.32;;;20.40;98.20;;;;;;5107634;28;20208;-51
2022/04/29 12:45:46;;;;;;;12.80;8.65;;;20.30;96.80;;;;;;5103028;28;20216;-51
2022/04/29 12:48:17;;;;;;;14.02;8.77;;;20.30;96.10;;;;;;5107997;28;20212;-51
2022/04/29 12:50:46;;;;;;;13.80;9.57;;;20.20;96.50;;;;;;5108122;28;20195;-51
2022/04/29 12:53:16;;;;;;;10.57;8.57;;;20.40;96.80;;;;;;5107695;28;20204;-51
2022/04/29 12:55:52;;;;;;;12.02;8.90;;;20.30;95.50;;;;;;5107791;28;20230;-51
2022/04/29 12:58:22;;;;;;;11.27;8.55;;;20.30;95.20;;;;;;5107712;28;20211;-50
2022/04/29 13:01:03;;;;;;;9.35;7.63;;;20.20;96.20;;;;;;5108002;28;20203;-50
2022/04/29 13:03:34;;;;;;;12.98;8.18;;;19.80;95.30;;;;;;5107492;28;20207;-50
2022/04/29 13:06:03;;;;;;;8.73;7.63;;;19.70;96.60;;;;;;5107994;28;20220;-51
2022/04/29 13:08:32;;;;;;;9.30;7.30;;;19.70;96.60;;;;;;5107638;28;20212;-51
2022/04/29 13:11:01;;;;;;;11.15;7.40;;;19.70;96.60;;;;;;5107909;28;20265;-50
2022/04/29 13:13:29;;;;;;;8.77;6.90;;;19.70;96.00;;;;;;5106881;28;20249;-51
2022/04/29 13:15:58;;;;;;;7.25;6.55;;;19.70;95.90;;;;;;5107679;28;20235;-50
2022/04/29 13:18:27;;;;;;;7.18;5.97;;;19.70;96.00;;;;;;5108175;28;20210;-50
2022/04/29 13:20:56;;;;;;;8.65;5.80;;;19.70;94.40;;;;;;5107528;28;20199;-51